sensor_id;sensor_type;location;lat;lon;timestamp;P1;durP1;ratioP1;P2;durP2;ratioP2
28180;SDS011;15464;50.988;10.318;2023-02-15T00:01:58;16.27;;;11.70;;
28180;SDS011;15464;50.988;10.318;2023-02-15T00:04:25;15.70;;;11.85;;
28180;SDS011;15464;50.988;10.318;2023-02-15T00:07:16;14.57;;;10.80;;
28180;SDS011;15464;50.988;10.318;2023-02-15T00:09:46;14.20;;;10.88;;
28180;SDS011;15464;50.988;10.318;2023-02-15T00:12:14;13.55;;;9.80;;
28180;SDS011;15464;50.988;10.318;2023-02-15T00:14:41;12.82;;;9.82;;
28180;SDS011;15464;50.988;10.318;2023-02-15T00:17:08;14.85;;;10.65;;
28180;SDS011;15464;50.988;10.318;2023-02-15T00:19:35;13.20;;;9.27;;
28180;SDS011;15464;50.988;10.318;2023-02-15T00:22:02;14.50;;;10.55;;
28180;SDS011;15464;50.988;10.318;2023-02-15T00:24:28;14.50;;;10.43;;
28180;SDS011;15464;50.988;10.318;2023-02-15T00:26:55;14.18;;;10.43;;
28180;SDS011;15464;50.988;10.318;2023-02-15T00:29:22;12.45;;;9.45;;
28180;SDS011;15464;50.988;10.318;2023-02-15T00:31:48;13.63;;;9.10;;
28180;SDS011;15464;50.988;10.318;2023-02-15T00:36:49;11.57;;;9.07;;
28180;SDS011;15464;50.988;10.318;2023-02-15T00:39:17;14.02;;;10.07;;
28180;SDS011;15464;50.988;10.318;2023-02-15T00:41:44;12.57;;;10.00;;
28180;SDS011;15464;50.988;10.318;2023-02-15T00:44:12;14.20;;;10.40;;
28180;SDS011;15464;50.988;10.318;2023-02-15T00:46:39;11.48;;;9.13;;
28180;SDS011;15464;50.988;10.318;2023-02-15T00:49:06;11.05;;;8.60;;
28180;SDS011;15464;50.988;10.318;2023-02-15T00:51:33;13.32;;;10.25;;
28180;SDS011;15464;50.988;10.318;2023-02-15T00:54:00;11.60;;;9.05;;
28180;SDS011;15464;50.988;10.318;2023-02-15T00:56:27;13.02;;;9.43;;
28180;SDS011;15464;50.988;10.318;2023-02-15T00:58:55;14.65;;;10.10;;
28180;SDS011;15464;50.988;10.318;2023-02-15T01:01:22;11.35;;;8.77;;
28180;SDS011;15464;50.988;10.318;2023-02-15T01:03:49;10.35;;;8.45;;
28180;SDS011;15464;50.988;10.318;2023-02-15T01:06:16;13.05;;;9.90;;
28180;SDS011;15464;50.988;10.318;2023-02-15T01:08:44;13.68;;;9.40;;
28180;SDS011;15464;50.988;10.318;2023-02-15T01:11:13;15.13;;;10.68;;
28180;SDS011;15464;50.988;10.318;2023-02-15T01:13:52;12.95;;;9.57;;
28180;SDS011;15464;50.988;10.318;2023-02-15T01:16:23;15.93;;;11.00;;
28180;SDS011;15464;50.988;10.318;2023-02-15T01:18:52;15.20;;;11.30;;
28180;SDS011;15464;50.988;10.318;2023-02-15T01:21:22;14.43;;;11.13;;
28180;SDS011;15464;50.988;10.318;2023-02-15T01:23:49;15.98;;;11.25;;
28180;SDS011;15464;50.988;10.318;2023-02-15T01:26:16;12.80;;;9.32;;
28180;SDS011;15464;50.988;10.318;2023-02-15T01:28:43;13.63;;;9.90;;
28180;SDS011;15464;50.988;10.318;2023-02-15T01:31:11;15.43;;;10.68;;
28180;SDS011;15464;50.988;10.318;2023-02-15T01:33:41;14.02;;;10.23;;
28180;SDS011;15464;50.988;10.318;2023-02-15T01:36:08;15.00;;;10.70;;
28180;SDS011;15464;50.988;10.318;2023-02-15T01:38:34;16.00;;;11.68;;
28180;SDS011;15464;50.988;10.318;2023-02-15T01:41:01;14.80;;;10.77;;
28180;SDS011;15464;50.988;10.318;2023-02-15T01:46:19;13.80;;;10.00;;
28180;SDS011;15464;50.988;10.318;2023-02-15T01:48:56;15.93;;;10.77;;
28180;SDS011;15464;50.988;10.318;2023-02-15T01:51:32;15.05;;;10.90;;
28180;SDS011;15464;50.988;10.318;2023-02-15T01:54:02;18.38;;;11.90;;
28180;SDS011;15464;50.988;10.318;2023-02-15T01:56:37;17.48;;;11.05;;
28180;SDS011;15464;50.988;10.318;2023-02-15T01:59:07;16.02;;;11.73;;
28180;SDS011;15464;50.988;10.318;2023-02-15T02:01:38;15.68;;;11.35;;
28180;SDS011;15464;50.988;10.318;2023-02-15T02:04:18;13.77;;;10.30;;
28180;SDS011;15464;50.988;10.318;2023-02-15T02:06:56;15.73;;;10.88;;
28180;SDS011;15464;50.988;10.318;2023-02-15T02:09:24;16.80;;;11.38;;
28180;SDS011;15464;50.988;10.318;2023-02-15T02:11:50;16.58;;;11.45;;
28180;SDS011;15464;50.988;10.318;2023-02-15T02:14:20;17.23;;;11.45;;
28180;SDS011;15464;50.988;10.318;2023-02-15T02:16:58;17.67;;;12.17;;
28180;SDS011;15464;50.988;10.318;2023-02-15T02:35:32;17.90;;;12.27;;
28180;SDS011;15464;50.988;10.318;2023-02-15T02:40:25;17.88;;;12.68;;
28180;SDS011;15464;50.988;10.318;2023-02-15T02:43:18;19.80;;;12.75;;
28180;SDS011;15464;50.988;10.318;2023-02-15T02:51:02;21.42;;;12.82;;
28180;SDS011;15464;50.988;10.318;2023-02-15T02:53:29;18.65;;;11.93;;
28180;SDS011;15464;50.988;10.318;2023-02-15T02:56:41;19.37;;;12.27;;
28180;SDS011;15464;50.988;10.318;2023-02-15T03:01:45;19.73;;;13.15;;
28180;SDS011;15464;50.988;10.318;2023-02-15T03:04:20;21.77;;;13.70;;
28180;SDS011;15464;50.988;10.318;2023-02-15T03:06:55;20.60;;;13.70;;
28180;SDS011;15464;50.988;10.318;2023-02-15T03:09:44;19.40;;;13.10;;
28180;SDS011;15464;50.988;10.318;2023-02-15T03:12:14;23.33;;;14.48;;
28180;SDS011;15464;50.988;10.318;2023-02-15T03:14:47;24.95;;;15.35;;
28180;SDS011;15464;50.988;10.318;2023-02-15T03:17:18;20.33;;;13.60;;
28180;SDS011;15464;50.988;10.318;2023-02-15T03:19:49;23.77;;;15.85;;
28180;SDS011;15464;50.988;10.318;2023-02-15T03:22:26;19.88;;;14.02;;
28180;SDS011;15464;50.988;10.318;2023-02-15T03:27:49;24.05;;;14.77;;
28180;SDS011;15464;50.988;10.318;2023-02-15T03:30:21;25.63;;;15.52;;
28180;SDS011;15464;50.988;10.318;2023-02-15T03:32:49;24.77;;;15.93;;
28180;SDS011;15464;50.988;10.318;2023-02-15T03:35:19;24.30;;;15.23;;
28180;SDS011;15464;50.988;10.318;2023-02-15T03:37:57;27.05;;;16.13;;
28180;SDS011;15464;50.988;10.318;2023-02-15T03:46:05;24.73;;;15.85;;
28180;SDS011;15464;50.988;10.318;2023-02-15T03:48:39;21.83;;;14.07;;
28180;SDS011;15464;50.988;10.318;2023-02-15T03:51:12;21.83;;;14.32;;
28180;SDS011;15464;50.988;10.318;2023-02-15T03:54:09;22.77;;;14.65;;
28180;SDS011;15464;50.988;10.318;2023-02-15T03:56:40;25.65;;;15.35;;
28180;SDS011;15464;50.988;10.318;2023-02-15T03:59:28;22.65;;;14.70;;
28180;SDS011;15464;50.988;10.318;2023-02-15T04:02:16;22.33;;;13.93;;
28180;SDS011;15464;50.988;10.318;2023-02-15T04:04:50;22.63;;;14.95;;
28180;SDS011;15464;50.988;10.318;2023-02-15T04:07:16;23.65;;;15.68;;
28180;SDS011;15464;50.988;10.318;2023-02-15T04:09:43;20.15;;;13.88;;
28180;SDS011;15464;50.988;10.318;2023-02-15T04:12:28;25.13;;;15.55;;
28180;SDS011;15464;50.988;10.318;2023-02-15T04:14:55;22.40;;;15.20;;
28180;SDS011;15464;50.988;10.318;2023-02-15T04:17:40;25.83;;;15.07;;
28180;SDS011;15464;50.988;10.318;2023-02-15T04:20:07;22.80;;;14.45;;
28180;SDS011;15464;50.988;10.318;2023-02-15T04:22:53;26.35;;;16.35;;
28180;SDS011;15464;50.988;10.318;2023-02-15T04:25:38;25.52;;;15.73;;
28180;SDS011;15464;50.988;10.318;2023-02-15T04:28:05;23.38;;;14.48;;
28180;SDS011;15464;50.988;10.318;2023-02-15T04:30:33;26.38;;;15.50;;
28180;SDS011;15464;50.988;10.318;2023-02-15T04:33:00;25.13;;;15.55;;
28180;SDS011;15464;50.988;10.318;2023-02-15T04:35:27;26.17;;;16.08;;
28180;SDS011;15464;50.988;10.318;2023-02-15T04:37:54;23.35;;;14.95;;
28180;SDS011;15464;50.988;10.318;2023-02-15T04:40:22;22.13;;;14.38;;
28180;SDS011;15464;50.988;10.318;2023-02-15T04:42:48;22.55;;;14.15;;
28180;SDS011;15464;50.988;10.318;2023-02-15T04:45:15;26.33;;;15.95;;
28180;SDS011;15464;50.988;10.318;2023-02-15T04:47:43;28.35;;;17.45;;
28180;SDS011;15464;50.988;10.318;2023-02-15T04:50:10;30.42;;;17.98;;
28180;SDS011;15464;50.988;10.318;2023-02-15T04:52:37;27.92;;;17.35;;
28180;SDS011;15464;50.988;10.318;2023-02-15T04:55:04;25.60;;;16.70;;
28180;SDS011;15464;50.988;10.318;2023-02-15T04:57:30;26.98;;;16.15;;
28180;SDS011;15464;50.988;10.318;2023-02-15T04:59:57;27.23;;;16.30;;
28180;SDS011;15464;50.988;10.318;2023-02-15T05:02:25;26.75;;;16.50;;
28180;SDS011;15464;50.988;10.318;2023-02-15T05:04:52;27.60;;;17.38;;
28180;SDS011;15464;50.988;10.318;2023-02-15T05:07:18;25.38;;;16.45;;
28180;SDS011;15464;50.988;10.318;2023-02-15T05:09:46;26.73;;;15.43;;
28180;SDS011;15464;50.988;10.318;2023-02-15T05:12:14;21.90;;;14.85;;
28180;SDS011;15464;50.988;10.318;2023-02-15T05:14:40;24.90;;;15.90;;
28180;SDS011;15464;50.988;10.318;2023-02-15T05:17:07;27.88;;;16.45;;
28180;SDS011;15464;50.988;10.318;2023-02-15T05:19:34;27.77;;;17.02;;
28180;SDS011;15464;50.988;10.318;2023-02-15T05:22:00;28.80;;;17.63;;
28180;SDS011;15464;50.988;10.318;2023-02-15T05:24:27;29.40;;;17.25;;
28180;SDS011;15464;50.988;10.318;2023-02-15T05:27:12;29.02;;;16.95;;
28180;SDS011;15464;50.988;10.318;2023-02-15T05:29:57;29.90;;;18.10;;
28180;SDS011;15464;50.988;10.318;2023-02-15T05:32:24;30.17;;;18.48;;
28180;SDS011;15464;50.988;10.318;2023-02-15T05:34:51;28.35;;;17.90;;
28180;SDS011;15464;50.988;10.318;2023-02-15T05:37:18;25.73;;;15.88;;
28180;SDS011;15464;50.988;10.318;2023-02-15T05:39:44;28.58;;;18.45;;
28180;SDS011;15464;50.988;10.318;2023-02-15T05:42:11;33.55;;;19.90;;
28180;SDS011;15464;50.988;10.318;2023-02-15T05:44:38;32.03;;;19.70;;
28180;SDS011;15464;50.988;10.318;2023-02-15T05:47:04;33.38;;;20.05;;
28180;SDS011;15464;50.988;10.318;2023-02-15T05:49:33;34.22;;;19.88;;
28180;SDS011;15464;50.988;10.318;2023-02-15T05:52:00;27.88;;;16.90;;
28180;SDS011;15464;50.988;10.318;2023-02-15T05:54:27;27.65;;;16.48;;
28180;SDS011;15464;50.988;10.318;2023-02-15T05:56:54;30.48;;;17.10;;
28180;SDS011;15464;50.988;10.318;2023-02-15T05:59:21;28.17;;;16.83;;
28180;SDS011;15464;50.988;10.318;2023-02-15T06:01:47;28.50;;;16.45;;
28180;SDS011;15464;50.988;10.318;2023-02-15T06:04:14;28.17;;;16.48;;
28180;SDS011;15464;50.988;10.318;2023-02-15T06:06:41;30.48;;;17.92;;
28180;SDS011;15464;50.988;10.318;2023-02-15T06:09:07;28.88;;;17.50;;
28180;SDS011;15464;50.988;10.318;2023-02-15T06:11:34;29.85;;;16.90;;
28180;SDS011;15464;50.988;10.318;2023-02-15T06:14:01;28.48;;;17.85;;
28180;SDS011;15464;50.988;10.318;2023-02-15T06:16:27;29.48;;;17.63;;
28180;SDS011;15464;50.988;10.318;2023-02-15T06:18:54;25.85;;;15.80;;
28180;SDS011;15464;50.988;10.318;2023-02-15T06:21:20;29.42;;;17.40;;
28180;SDS011;15464;50.988;10.318;2023-02-15T06:23:47;26.58;;;16.38;;
28180;SDS011;15464;50.988;10.318;2023-02-15T06:26:14;29.48;;;16.88;;
28180;SDS011;15464;50.988;10.318;2023-02-15T06:28:40;23.27;;;15.25;;
28180;SDS011;15464;50.988;10.318;2023-02-15T06:31:07;25.85;;;16.38;;
28180;SDS011;15464;50.988;10.318;2023-02-15T06:33:34;24.00;;;15.07;;
28180;SDS011;15464;50.988;10.318;2023-02-15T06:36:01;28.58;;;16.75;;
28180;SDS011;15464;50.988;10.318;2023-02-15T06:38:30;21.92;;;13.95;;
28180;SDS011;15464;50.988;10.318;2023-02-15T06:40:57;25.98;;;15.25;;
28180;SDS011;15464;50.988;10.318;2023-02-15T06:43:24;27.88;;;16.77;;
28180;SDS011;15464;50.988;10.318;2023-02-15T06:45:50;23.60;;;15.60;;
28180;SDS011;15464;50.988;10.318;2023-02-15T06:48:17;23.85;;;14.95;;
28180;SDS011;15464;50.988;10.318;2023-02-15T06:50:44;20.65;;;14.18;;
28180;SDS011;15464;50.988;10.318;2023-02-15T06:53:10;25.35;;;14.90;;
28180;SDS011;15464;50.988;10.318;2023-02-15T06:55:37;26.27;;;15.63;;
28180;SDS011;15464;50.988;10.318;2023-02-15T06:58:04;25.73;;;16.13;;
28180;SDS011;15464;50.988;10.318;2023-02-15T07:00:30;28.15;;;16.35;;
28180;SDS011;15464;50.988;10.318;2023-02-15T07:02:57;24.73;;;15.25;;
28180;SDS011;15464;50.988;10.318;2023-02-15T07:05:25;26.25;;;15.55;;
28180;SDS011;15464;50.988;10.318;2023-02-15T07:07:57;25.45;;;14.13;;
28180;SDS011;15464;50.988;10.318;2023-02-15T07:10:25;25.23;;;15.23;;
28180;SDS011;15464;50.988;10.318;2023-02-15T07:12:53;23.85;;;13.73;;
28180;SDS011;15464;50.988;10.318;2023-02-15T07:15:20;24.98;;;16.67;;
28180;SDS011;15464;50.988;10.318;2023-02-15T07:17:47;21.92;;;14.10;;
28180;SDS011;15464;50.988;10.318;2023-02-15T07:20:19;22.95;;;14.77;;
28180;SDS011;15464;50.988;10.318;2023-02-15T07:22:48;23.52;;;15.10;;
28180;SDS011;15464;50.988;10.318;2023-02-15T07:25:15;18.05;;;12.05;;
28180;SDS011;15464;50.988;10.318;2023-02-15T07:27:43;17.15;;;11.88;;
28180;SDS011;15464;50.988;10.318;2023-02-15T07:30:12;18.80;;;12.70;;
28180;SDS011;15464;50.988;10.318;2023-02-15T07:32:40;19.45;;;12.57;;
28180;SDS011;15464;50.988;10.318;2023-02-15T07:35:30;21.98;;;13.68;;
28180;SDS011;15464;50.988;10.318;2023-02-15T07:37:57;17.58;;;11.50;;
28180;SDS011;15464;50.988;10.318;2023-02-15T07:40:23;15.85;;;10.73;;
28180;SDS011;15464;50.988;10.318;2023-02-15T07:42:50;14.90;;;10.35;;
28180;SDS011;15464;50.988;10.318;2023-02-15T07:45:21;14.95;;;10.50;;
28180;SDS011;15464;50.988;10.318;2023-02-15T07:47:48;15.63;;;10.32;;
28180;SDS011;15464;50.988;10.318;2023-02-15T07:50:15;14.65;;;10.00;;
28180;SDS011;15464;50.988;10.318;2023-02-15T07:52:41;14.68;;;10.40;;
28180;SDS011;15464;50.988;10.318;2023-02-15T07:55:08;13.10;;;9.25;;
28180;SDS011;15464;50.988;10.318;2023-02-15T07:57:41;13.88;;;9.90;;
28180;SDS011;15464;50.988;10.318;2023-02-15T08:00:10;14.02;;;9.30;;
28180;SDS011;15464;50.988;10.318;2023-02-15T08:02:41;14.13;;;9.57;;
28180;SDS011;15464;50.988;10.318;2023-02-15T08:05:08;16.40;;;9.82;;
28180;SDS011;15464;50.988;10.318;2023-02-15T08:07:34;16.33;;;9.38;;
28180;SDS011;15464;50.988;10.318;2023-02-15T08:10:01;14.35;;;9.02;;
28180;SDS011;15464;50.988;10.318;2023-02-15T08:12:28;13.10;;;8.95;;
28180;SDS011;15464;50.988;10.318;2023-02-15T08:14:55;13.10;;;9.60;;
28180;SDS011;15464;50.988;10.318;2023-02-15T08:17:22;12.35;;;8.32;;
28180;SDS011;15464;50.988;10.318;2023-02-15T08:19:49;12.20;;;8.82;;
28180;SDS011;15464;50.988;10.318;2023-02-15T08:22:16;13.07;;;8.15;;
28180;SDS011;15464;50.988;10.318;2023-02-15T08:24:43;12.80;;;8.50;;
28180;SDS011;15464;50.988;10.318;2023-02-15T08:27:10;12.27;;;9.15;;
28180;SDS011;15464;50.988;10.318;2023-02-15T08:29:37;12.10;;;9.40;;
28180;SDS011;15464;50.988;10.318;2023-02-15T08:32:06;12.05;;;8.90;;
28180;SDS011;15464;50.988;10.318;2023-02-15T08:34:36;11.70;;;8.75;;
28180;SDS011;15464;50.988;10.318;2023-02-15T08:37:05;12.18;;;8.85;;
28180;SDS011;15464;50.988;10.318;2023-02-15T08:39:32;11.32;;;8.85;;
28180;SDS011;15464;50.988;10.318;2023-02-15T08:41:59;11.13;;;8.20;;
28180;SDS011;15464;50.988;10.318;2023-02-15T08:44:26;11.85;;;8.60;;
28180;SDS011;15464;50.988;10.318;2023-02-15T08:46:52;11.63;;;7.97;;
28180;SDS011;15464;50.988;10.318;2023-02-15T08:49:21;17.60;;;7.78;;
28180;SDS011;15464;50.988;10.318;2023-02-15T08:51:48;12.02;;;8.73;;
28180;SDS011;15464;50.988;10.318;2023-02-15T08:54:20;9.48;;;7.40;;
28180;SDS011;15464;50.988;10.318;2023-02-15T08:56:47;9.15;;;7.22;;
28180;SDS011;15464;50.988;10.318;2023-02-15T08:59:21;10.15;;;7.72;;
28180;SDS011;15464;50.988;10.318;2023-02-15T09:01:50;9.35;;;7.43;;
28180;SDS011;15464;50.988;10.318;2023-02-15T09:04:18;9.85;;;7.22;;
28180;SDS011;15464;50.988;10.318;2023-02-15T09:06:46;9.52;;;6.95;;
28180;SDS011;15464;50.988;10.318;2023-02-15T09:09:14;9.63;;;7.15;;
28180;SDS011;15464;50.988;10.318;2023-02-15T09:11:43;9.17;;;7.10;;
28180;SDS011;15464;50.988;10.318;2023-02-15T09:14:13;9.13;;;6.88;;
28180;SDS011;15464;50.988;10.318;2023-02-15T09:16:43;9.77;;;7.50;;
28180;SDS011;15464;50.988;10.318;2023-02-15T09:19:12;8.52;;;7.10;;
28180;SDS011;15464;50.988;10.318;2023-02-15T09:21:39;10.18;;;7.53;;
28180;SDS011;15464;50.988;10.318;2023-02-15T09:24:08;9.02;;;7.05;;
28180;SDS011;15464;50.988;10.318;2023-02-15T09:26:38;10.02;;;7.47;;
28180;SDS011;15464;50.988;10.318;2023-02-15T09:29:07;9.57;;;7.32;;
28180;SDS011;15464;50.988;10.318;2023-02-15T09:31:38;9.68;;;7.65;;
28180;SDS011;15464;50.988;10.318;2023-02-15T09:34:07;9.50;;;7.05;;
28180;SDS011;15464;50.988;10.318;2023-02-15T09:36:35;9.35;;;7.18;;
28180;SDS011;15464;50.988;10.318;2023-02-15T09:42:00;9.68;;;7.00;;
28180;SDS011;15464;50.988;10.318;2023-02-15T09:53:29;8.63;;;6.65;;
28180;SDS011;15464;50.988;10.318;2023-02-15T10:07:43;8.73;;;6.28;;
28180;SDS011;15464;50.988;10.318;2023-02-15T10:18:52;7.82;;;6.13;;
28180;SDS011;15464;50.988;10.318;2023-02-15T10:27:20;8.20;;;6.20;;
28180;SDS011;15464;50.988;10.318;2023-02-15T10:37:37;7.65;;;5.93;;
28180;SDS011;15464;50.988;10.318;2023-02-15T10:51:26;7.10;;;5.50;;
28180;SDS011;15464;50.988;10.318;2023-02-15T11:00:11;6.57;;;5.53;;
28180;SDS011;15464;50.988;10.318;2023-02-15T11:05:08;6.82;;;5.63;;
28180;SDS011;15464;50.988;10.318;2023-02-15T11:07:51;6.05;;;5.22;;
28180;SDS011;15464;50.988;10.318;2023-02-15T11:10:24;8.25;;;5.57;;
28180;SDS011;15464;50.988;10.318;2023-02-15T11:13:03;7.25;;;5.45;;
28180;SDS011;15464;50.988;10.318;2023-02-15T11:15:56;6.72;;;5.55;;
28180;SDS011;15464;50.988;10.318;2023-02-15T11:18:29;6.30;;;5.18;;
28180;SDS011;15464;50.988;10.318;2023-02-15T11:21:07;10.13;;;5.43;;
28180;SDS011;15464;50.988;10.318;2023-02-15T11:23:43;6.38;;;5.55;;
28180;SDS011;15464;50.988;10.318;2023-02-15T11:26:13;7.53;;;5.80;;
28180;SDS011;15464;50.988;10.318;2023-02-15T11:28:51;9.07;;;6.45;;
28180;SDS011;15464;50.988;10.318;2023-02-15T11:31:22;8.95;;;6.25;;
28180;SDS011;15464;50.988;10.318;2023-02-15T11:33:57;7.25;;;5.82;;
28180;SDS011;15464;50.988;10.318;2023-02-15T11:36:31;7.53;;;5.60;;
28180;SDS011;15464;50.988;10.318;2023-02-15T11:39:10;7.78;;;6.35;;
28180;SDS011;15464;50.988;10.318;2023-02-15T11:41:52;7.75;;;5.82;;
28180;SDS011;15464;50.988;10.318;2023-02-15T11:44:24;7.93;;;5.95;;
28180;SDS011;15464;50.988;10.318;2023-02-15T11:46:58;7.25;;;5.97;;
28180;SDS011;15464;50.988;10.318;2023-02-15T11:51:55;8.20;;;6.30;;
28180;SDS011;15464;50.988;10.318;2023-02-15T11:54:27;8.00;;;5.87;;
28180;SDS011;15464;50.988;10.318;2023-02-15T11:56:56;7.60;;;6.30;;
28180;SDS011;15464;50.988;10.318;2023-02-15T11:59:33;7.82;;;5.75;;
28180;SDS011;15464;50.988;10.318;2023-02-15T12:02:17;7.75;;;5.70;;
28180;SDS011;15464;50.988;10.318;2023-02-15T12:04:48;7.57;;;5.75;;
28180;SDS011;15464;50.988;10.318;2023-02-15T12:07:20;7.05;;;5.85;;
28180;SDS011;15464;50.988;10.318;2023-02-15T12:09:54;8.85;;;6.20;;
28180;SDS011;15464;50.988;10.318;2023-02-15T12:12:43;7.22;;;5.80;;
28180;SDS011;15464;50.988;10.318;2023-02-15T12:15:10;7.97;;;6.07;;
28180;SDS011;15464;50.988;10.318;2023-02-15T12:20:52;7.97;;;6.50;;
28180;SDS011;15464;50.988;10.318;2023-02-15T12:23:02;7.68;;;6.07;;
28180;SDS011;15464;50.988;10.318;2023-02-15T12:25:35;7.57;;;6.07;;
28180;SDS011;15464;50.988;10.318;2023-02-15T12:28:17;10.05;;;6.30;;
28180;SDS011;15464;50.988;10.318;2023-02-15T12:30:54;7.50;;;6.32;;
28180;SDS011;15464;50.988;10.318;2023-02-15T12:38:36;7.75;;;6.07;;
28180;SDS011;15464;50.988;10.318;2023-02-15T12:41:05;7.40;;;6.10;;
28180;SDS011;15464;50.988;10.318;2023-02-15T12:43:50;8.20;;;6.60;;
28180;SDS011;15464;50.988;10.318;2023-02-15T12:46:31;7.65;;;6.35;;
28180;SDS011;15464;50.988;10.318;2023-02-15T12:49:07;7.70;;;6.03;;
28180;SDS011;15464;50.988;10.318;2023-02-15T12:51:56;7.20;;;6.03;;
28180;SDS011;15464;50.988;10.318;2023-02-15T12:54:38;7.60;;;6.32;;
28180;SDS011;15464;50.988;10.318;2023-02-15T12:59:59;7.95;;;6.03;;
28180;SDS011;15464;50.988;10.318;2023-02-15T13:02:50;8.13;;;6.22;;
28180;SDS011;15464;50.988;10.318;2023-02-15T13:08:04;10.13;;;7.20;;
28180;SDS011;15464;50.988;10.318;2023-02-15T13:10:53;8.07;;;6.72;;
28180;SDS011;15464;50.988;10.318;2023-02-15T13:13:27;8.68;;;7.05;;
28180;SDS011;15464;50.988;10.318;2023-02-15T13:15:58;8.82;;;7.20;;
28180;SDS011;15464;50.988;10.318;2023-02-15T13:18:31;13.25;;;6.95;;
28180;SDS011;15464;50.988;10.318;2023-02-15T13:21:14;8.43;;;6.82;;
28180;SDS011;15464;50.988;10.318;2023-02-15T13:23:46;7.95;;;7.03;;
28180;SDS011;15464;50.988;10.318;2023-02-15T13:26:20;9.13;;;7.25;;
28180;SDS011;15464;50.988;10.318;2023-02-15T13:28:50;8.73;;;7.10;;
28180;SDS011;15464;50.988;10.318;2023-02-15T13:31:23;9.77;;;7.25;;
28180;SDS011;15464;50.988;10.318;2023-02-15T13:33:58;7.70;;;6.35;;
28180;SDS011;15464;50.988;10.318;2023-02-15T13:39:38;8.93;;;7.28;;
28180;SDS011;15464;50.988;10.318;2023-02-15T13:47:44;8.35;;;7.10;;
28180;SDS011;15464;50.988;10.318;2023-02-15T13:55:40;10.37;;;8.27;;
28180;SDS011;15464;50.988;10.318;2023-02-15T14:01:09;9.23;;;7.72;;
28180;SDS011;15464;50.988;10.318;2023-02-15T14:09:11;8.70;;;7.53;;
28180;SDS011;15464;50.988;10.318;2023-02-15T14:14:53;9.52;;;7.22;;
28180;SDS011;15464;50.988;10.318;2023-02-15T14:23:16;7.72;;;6.70;;
28180;SDS011;15464;50.988;10.318;2023-02-15T14:31:14;9.80;;;7.53;;
28180;SDS011;15464;50.988;10.318;2023-02-15T14:33:48;9.98;;;8.07;;
28180;SDS011;15464;50.988;10.318;2023-02-15T14:36:20;8.57;;;7.50;;
28180;SDS011;15464;50.988;10.318;2023-02-15T14:42:16;9.93;;;8.52;;
28180;SDS011;15464;50.988;10.318;2023-02-15T14:45:12;9.88;;;7.60;;
28180;SDS011;15464;50.988;10.318;2023-02-15T14:47:42;9.07;;;7.53;;
28180;SDS011;15464;50.988;10.318;2023-02-15T14:53:14;10.73;;;8.63;;
28180;SDS011;15464;50.988;10.318;2023-02-15T15:01:52;8.23;;;7.28;;
28180;SDS011;15464;50.988;10.318;2023-02-15T15:04:38;9.88;;;8.13;;
28180;SDS011;15464;50.988;10.318;2023-02-15T15:07:19;8.48;;;7.57;;
28180;SDS011;15464;50.988;10.318;2023-02-15T15:09:58;9.63;;;7.53;;
28180;SDS011;15464;50.988;10.318;2023-02-15T15:12:47;10.32;;;8.90;;
28180;SDS011;15464;50.988;10.318;2023-02-15T15:18:04;9.77;;;7.90;;
28180;SDS011;15464;50.988;10.318;2023-02-15T15:20:47;10.85;;;7.68;;
28180;SDS011;15464;50.988;10.318;2023-02-15T15:26:47;11.38;;;8.57;;
28180;SDS011;15464;50.988;10.318;2023-02-15T15:28:54;10.27;;;8.15;;
28180;SDS011;15464;50.988;10.318;2023-02-15T15:39:53;9.82;;;8.43;;
28180;SDS011;15464;50.988;10.318;2023-02-15T15:48:30;12.80;;;8.23;;
28180;SDS011;15464;50.988;10.318;2023-02-15T15:51:00;11.65;;;8.95;;
28180;SDS011;15464;50.988;10.318;2023-02-15T15:53:47;11.52;;;8.82;;
28180;SDS011;15464;50.988;10.318;2023-02-15T15:56:20;12.63;;;9.00;;
28180;SDS011;15464;50.988;10.318;2023-02-15T15:58:52;11.75;;;9.30;;
28180;SDS011;15464;50.988;10.318;2023-02-15T16:01:28;11.27;;;9.15;;
28180;SDS011;15464;50.988;10.318;2023-02-15T16:03:58;12.27;;;9.80;;
28180;SDS011;15464;50.988;10.318;2023-02-15T16:06:26;11.30;;;9.23;;
28180;SDS011;15464;50.988;10.318;2023-02-15T16:09:09;12.65;;;9.57;;
28180;SDS011;15464;50.988;10.318;2023-02-15T16:11:37;12.05;;;9.43;;
28180;SDS011;15464;50.988;10.318;2023-02-15T16:14:18;14.77;;;10.35;;
28180;SDS011;15464;50.988;10.318;2023-02-15T16:16:54;14.63;;;9.77;;
28180;SDS011;15464;50.988;10.318;2023-02-15T16:19:24;11.80;;;9.30;;
28180;SDS011;15464;50.988;10.318;2023-02-15T16:21:54;11.80;;;9.70;;
28180;SDS011;15464;50.988;10.318;2023-02-15T16:27:21;12.70;;;9.93;;
28180;SDS011;15464;50.988;10.318;2023-02-15T16:33:33;12.73;;;9.98;;
28180;SDS011;15464;50.988;10.318;2023-02-15T16:35:56;13.65;;;10.55;;
28180;SDS011;15464;50.988;10.318;2023-02-15T16:41:08;14.23;;;10.23;;
28180;SDS011;15464;50.988;10.318;2023-02-15T16:43:37;14.48;;;10.73;;
28180;SDS011;15464;50.988;10.318;2023-02-15T16:48:39;14.63;;;10.75;;
28180;SDS011;15464;50.988;10.318;2023-02-15T16:51:09;15.23;;;11.25;;
28180;SDS011;15464;50.988;10.318;2023-02-15T16:53:36;16.45;;;12.20;;
28180;SDS011;15464;50.988;10.318;2023-02-15T16:56:03;17.35;;;12.07;;
28180;SDS011;15464;50.988;10.318;2023-02-15T16:58:36;15.13;;;11.20;;
28180;SDS011;15464;50.988;10.318;2023-02-15T17:01:07;17.20;;;11.95;;
28180;SDS011;15464;50.988;10.318;2023-02-15T17:03:36;16.17;;;12.27;;
28180;SDS011;15464;50.988;10.318;2023-02-15T17:06:04;15.25;;;11.15;;
28180;SDS011;15464;50.988;10.318;2023-02-15T17:11:35;16.52;;;12.18;;
28180;SDS011;15464;50.988;10.318;2023-02-15T17:19:09;15.93;;;11.82;;
28180;SDS011;15464;50.988;10.318;2023-02-15T17:21:42;15.50;;;11.00;;
28180;SDS011;15464;50.988;10.318;2023-02-15T17:24:33;17.35;;;12.20;;
28180;SDS011;15464;50.988;10.318;2023-02-15T17:27:39;17.85;;;13.25;;
28180;SDS011;15464;50.988;10.318;2023-02-15T17:30:02;18.75;;;13.38;;
28180;SDS011;15464;50.988;10.318;2023-02-15T17:32:39;18.38;;;13.15;;
28180;SDS011;15464;50.988;10.318;2023-02-15T17:35:22;18.48;;;13.50;;
28180;SDS011;15464;50.988;10.318;2023-02-15T17:38:00;15.23;;;11.57;;
28180;SDS011;15464;50.988;10.318;2023-02-15T17:40:43;16.90;;;13.20;;
28180;SDS011;15464;50.988;10.318;2023-02-15T17:43:10;17.05;;;12.82;;
28180;SDS011;15464;50.988;10.318;2023-02-15T17:45:40;14.95;;;11.63;;
28180;SDS011;15464;50.988;10.318;2023-02-15T17:48:28;17.15;;;12.82;;
28180;SDS011;15464;50.988;10.318;2023-02-15T17:50:59;17.73;;;12.73;;
28180;SDS011;15464;50.988;10.318;2023-02-15T17:53:28;18.00;;;13.00;;
28180;SDS011;15464;50.988;10.318;2023-02-15T17:55:55;16.73;;;12.50;;
28180;SDS011;15464;50.988;10.318;2023-02-15T17:58:21;17.52;;;12.25;;
28180;SDS011;15464;50.988;10.318;2023-02-15T18:00:49;19.50;;;14.02;;
28180;SDS011;15464;50.988;10.318;2023-02-15T18:06:32;16.70;;;12.48;;
28180;SDS011;15464;50.988;10.318;2023-02-15T18:09:19;18.92;;;13.93;;
28180;SDS011;15464;50.988;10.318;2023-02-15T18:12:25;18.80;;;13.60;;
28180;SDS011;15464;50.988;10.318;2023-02-15T18:15:04;16.15;;;12.43;;
28180;SDS011;15464;50.988;10.318;2023-02-15T18:20:24;18.73;;;12.68;;
28180;SDS011;15464;50.988;10.318;2023-02-15T18:23:00;18.60;;;13.10;;